Station: Coondewanna  

  Atmospheric Gas Attenuation - ITU Rec 676-11   ----------------- dB/100km -----------------
Date Time Temp RH % AH g/m3 Dew Point Wind Direction Speed kph Gust kph Barometer mB Rainfall Since 9am 24GHz 47GHz 76GHz 122GHz 134GHz 241GHz
08/05 09:20 18.3 34 5.32 2.2 28 32 1013.1 0 12.5 19.9 26.0 67.6 54.6 185.2
08/05 09:10 18.2 34 5.28 2.1 26 32 1013.1 0 12.4 19.9 25.9 67.3 54.2 183.9
08/05 09:00 17.7 36 5.43 2.5 30 39 1022.5 0 12.7 20.5 26.9 69.8 56.7 192.4
08/05 08:50 17.4 37 5.48 2.6 32 35 1013.1 0 12.8 20.3 26.8 69.8 56.9 193.5
08/05 08:40 16.7 39 5.54 2.7 30 33 1013.1 0 13.0 20.6 27.2 70.9 58.1 197.6
08/05 08:30 16.7 39 5.54 2.7 30 39 1022.5 0 13.0 20.9 27.6 71.7 58.6 199.2
08/05 08:20 16.4 40 5.58 2.8 32 37 1013.1 0 13.1 20.7 27.5 71.6 58.8 199.9
08/05 08:10 16.3 41 5.69 3 24 28 1013.1 0 13.3 20.9 27.9 72.7 60.1 204.5
08/05 08:00 16 42 5.72 3.1 26 39 1022.6 0 13.4 21.3 28.4 74.0 61.2 208.2
08/05 07:50 15.7 43 5.75 3.2 24 30 1013.1 0 13.5 21.1 28.3 73.8 61.2 208.5
08/05 07:40 15.6 43 5.72 3.1 19 22 1013.1 0 13.4 21.1 28.2 73.6 61.0 207.5
08/05 07:30 15.3 43 5.62 2.8 22 30 1022.5 0 13.2 21.3 28.3 73.7 60.6 205.9
08/05 07:20 15 44 5.64 2.9 20 24 1013.1 0 13.3 21.1 28.2 73.4 60.5 205.8
08/05 07:10 14.7 44 5.54 2.6 19 24 1013.1 0 13.1 21.0 27.9 72.7 59.6 202.4
08/05 07:00 14.4 44 5.44 2.3 15 22 1022.3 0 12.9 21.2 28.0 72.8 59.1 200.7
08/05 06:50 14.3 44 5.41 2.2 13 17 1013.1 0 12.8 20.9 27.6 71.8 58.4 198.1
08/05 06:40 14.3 43 5.28 1.9 11 13 1013.1 0 12.5 20.7 27.1 70.6 56.9 192.9
08/05 06:30 14.4 42 5.19 1.7 15 24 1022 0 12.3 20.9 27.1 70.4 56.2 190.5
08/05 06:20 14.5 41 5.1 1.4 17 20 1013.1 0 12.1 20.4 26.5 68.8 54.7 185.1
08/05 06:10 14.6 40 5.01 1.2 15 19 1013.1 0 11.9 20.3 26.1 67.9 53.6 181.3
08/05 06:00 14.7 40 5.04 1.3 15 22 1021.7 0 12.0 20.6 26.5 68.7 54.3 183.7
08/05 05:50 14.8 39 4.94 1 13 13 1013.1 0 11.8 20.1 25.8 67.1 52.6 178.1
08/05 05:40 15 38 4.87 0.8 19 20 1013.1 0 11.6 20.0 25.5 66.3 51.7 174.9
08/05 05:30 15 37 4.74 0.4 17 26 1021.6 0 11.4 20.1 25.4 65.7 50.7 171.1
08/05 05:20 15 37 4.74 0.4 15 17 1013.1 0 11.4 19.8 25.1 65.1 50.3 169.8
08/05 05:10 15.2 36 4.67 0.2 19 22 1013.1 0 11.2 19.7 24.8 64.3 49.4 166.6
08/05 05:00 15.2 36 4.67 0.2 17 28 1021.1 0 11.2 20.0 25.0 64.9 49.7 167.8
08/05 04:50 15.3 35 4.57 -0.1 20 28 1013.1 0 11.0 19.5 24.4 63.3 48.2 162.5
08/05 04:40 15.3 35 4.57 -0.1 15 20 1013.1 0 11.0 19.5 24.4 63.3 48.2 162.5
08/05 04:30 15.3 35 4.57 -0.1 15 20 1020.9 0 11.0 19.8 24.7 63.9 48.6 163.7
08/05 04:20 15.4 34 4.47 -0.4 17 20 1013.1 0 10.8 19.4 24.0 62.4 47.0 158.5
08/05 04:10 15.6 34 4.52 -0.2 22 24 1013.1 0 10.9 19.4 24.2 62.7 47.5 160.0
08/05 04:00 15.6 34 4.52 -0.2 17 24 1020.9 0 10.9 19.7 24.4 63.2 47.8 161.1
08/05 03:50 15.7 34 4.55 -0.1 19 22 1013.1 0 10.9 19.4 24.2 62.8 47.7 161.0
08/05 03:40 15.9 34 4.6 0.1 19 22 1013.1 0 11.0 19.4 24.3 63.1 48.2 162.5
08/05 03:30 16 33 4.5 -0.2 17 26 1020.9 0 10.8 19.5 24.2 62.8 47.4 159.6
08/05 03:20 16.2 33 4.55 -0.1 20 24 1013.1 0 10.9 19.3 24.1 62.5 47.5 160.0
08/05 03:10 16.2 33 4.55 -0.1 19 20 1013.1 0 10.9 19.3 24.1 62.5 47.5 160.0
08/05 03:00 16.2 32 4.41 -0.5 15 24 1020.9 0 10.6 19.4 23.9 61.8 46.3 155.7
08/05 02:50 16.4 32 4.47 -0.3 17 20 1013.1 0 10.7 19.2 23.8 61.6 46.5 156.6
08/05 02:40 16.5 31 4.35 -0.7 20 22 1013.1 0 10.5 19.0 23.3 60.5 45.1 151.8
08/05 02:30 16.8 31 4.43 -0.4 19 26 1020.9 0 10.7 19.3 23.8 61.5 46.1 155.4
08/05 02:20 16.9 30 4.31 -0.8 22 26 1013.1 0 10.4 18.9 23.1 59.9 44.5 149.6
08/05 02:10 16.8 30 4.29 -0.9 19 20 1013.1 0 10.4 18.9 23.1 59.8 44.3 149.0
08/05 02:00 17.1 30 4.37 -0.6 17 28 1020.9 0 10.5 19.1 23.5 60.8 45.3 152.5
08/05 01:50 17.1 29 4.22 -1.1 17 22 1013.1 0 10.2 18.7 22.8 58.9 43.4 145.8
08/05 01:40 17.3 29 4.27 -0.9 17 20 1013.1 0 10.3 18.7 22.9 59.2 43.8 147.4
08/05 01:30 17.4 29 4.3 -0.8 17 26 1021.1 0 10.4 19.0 23.2 60.0 44.4 149.4
08/05 01:20 17.3 29 4.27 -0.9 17 20 1013.1 0 10.3 18.7 22.9 59.2 43.8 147.4
08/05 01:10 17.6 29 4.35 -0.6 20 28 1013.1 0 10.5 18.8 23.0 59.7 44.5 149.8
08/05 01:00 17.5 29 4.32 -0.7 17 24 1021.1 0 10.4 19.0 23.2 60.1 44.6 150.0
08/05 00:50 17.6 29 4.35 -0.6 17 22 1013.1 0 10.5 18.8 23.0 59.7 44.5 149.8
08/05 00:40 17.7 28 4.22 -1 15 17 1013.1 0 10.2 18.6 22.6 58.5 43.1 144.8
08/05 00:30 17.7 28 4.22 -1 15 22 1021.2 0 10.2 18.8 22.9 59.1 43.4 145.9
08/05 00:20 17.9 28 4.27 -0.8 15 19 1013.1 0 10.3 18.6 22.7 58.8 43.5 146.3
08/05 00:10 18 27 4.15 -1.3 20 28 1013.1 0 10.0 18.4 22.3 57.7 42.2 141.7
08/05 00:00 18.1 27 4.17 -1.2 17 24 1021.3 0 10.1 18.7 22.6 58.4 42.7 143.3
07/05 23:50 18.2 27 4.2 -1.1 19 24 1013.1 0 10.1 18.5 22.4 58.0 42.6 143.2
07/05 23:40 18.4 26 4.09 -1.4 20 24 1013.1 0 9.9 18.3 22.0 56.9 41.4 138.8
07/05 23:30 18.5 26 4.11 -1.3 17 26 1021.2 0 9.9 18.5 22.3 57.6 41.8 140.4
07/05 23:20 18.4 26 4.09 -1.4 19 24 1013.1 0 9.9 18.3 22.0 56.9 41.4 138.8
07/05 23:10 18.5 26 4.11 -1.3 15 20 1013.1 0 9.9 18.3 22.0 57.0 41.5 139.4
07/05 23:00 18.6 26 4.14 -1.3 15 20 1021.2 0 10.0 18.6 22.4 57.8 42.1 141.4
07/05 22:50 18.9 25 4.05 -1.5 19 22 1013.1 0 9.8 18.1 21.7 56.2 40.7 136.5
07/05 22:40 19 25 4.07 -1.4 19 22 1013.1 0 9.8 18.1 21.8 56.3 40.9 137.1
07/05 22:30 19 25 4.07 -1.4 17 22 1021.2 0 9.8 18.4 22.0 56.9 41.2 138.1
07/05 22:20 19.1 25 4.1 -1.4 15 19 1013.1 0 9.9 18.2 21.9 56.5 41.1 138.0
07/05 22:10 19.1 25 4.1 -1.4 13 15 1013.1 0 9.9 18.2 21.9 56.5 41.1 138.0
07/05 22:00 19.2 25 4.12 -1.3 19 24 1021.1 0 9.9 18.4 22.1 57.2 41.6 139.6
07/05 21:50 19.3 25 4.15 -1.2 17 20 1013.1 0 10.0 18.2 22.0 56.8 41.5 139.5
07/05 21:40 19.3 25 4.15 -1.2 13 17 1013.1 0 10.0 18.2 22.0 56.8 41.5 139.5
07/05 21:30 19.4 26 4.34 -0.6 17 24 1020.9 0 10.4 18.6 22.8 58.9 43.8 147.3
07/05 21:20 19.6 26 4.39 -0.4 17 19 1013.1 0 10.5 18.4 22.6 58.6 43.9 147.7
07/05 21:10 19.6 26 4.39 -0.4 15 17 1013.1 0 10.5 18.4 22.6 58.6 43.9 147.7
07/05 21:00 19.9 26 4.47 -0.1 13 22 1020.7 0 10.6 18.7 23.0 59.6 44.9 151.2
07/05 20:50 20.1 25 4.35 -0.5 17 20 1013.1 0 10.4 18.3 22.4 57.9 43.2 145.4
07/05 20:40 20.3 25 4.4 -0.3 13 17 1013.1 0 10.5 18.3 22.5 58.2 43.6 146.9
07/05 20:30 20.5 25 4.45 -0.2 19 24 1020.5 0 10.6 18.6 22.8 59.0 44.3 149.3
07/05 20:20 20.7 25 4.5 0 19 22 1013.1 0 10.7 18.4 22.7 58.7 44.4 149.8
07/05 20:10 20.7 25 4.5 0 20 24 1013.1 0 10.7 18.4 22.7 58.7 44.4 149.8
07/05 20:00 20.8 26 4.71 0.6 15 24 1020.1 0 11.1 18.8 23.5 60.9 46.8 158.2
07/05 19:50 20.8 26 4.71 0.6 13 13 1013.1 0 11.1 18.6 23.3 60.4 46.5 157.2
07/05 19:40 21 26 4.76 0.8 17 19 1013.1 0 11.2 18.6 23.4 60.7 46.9 158.7
07/05 19:30 21.3 25 4.66 0.5 19 22 1013.1 0 11.0 18.4 23.0 59.7 45.7 154.5
07/05 19:20 21.3 26 4.85 1 20 28 1013.1 0 11.4 18.7 23.6 61.2 47.7 161.4
07/05 19:10 21.2 26 4.82 1 15 19 1013.1 0 11.3 18.7 23.5 61.1 47.4 160.5
07/05 19:00 21.2 26 4.82 1 17 20 1019.4 0 11.3 18.9 23.7 61.5 47.7 161.4
07/05 18:50 21.2 26 4.82 1 13 15 1013.1 0 11.3 18.7 23.5 61.1 47.4 160.5
07/05 18:40 21.3 26 4.85 1 15 19 1013.1 0 11.4 18.7 23.6 61.2 47.7 161.4
07/05 18:30 21.4 26 4.87 1.1 19 26 1019.2 0 11.4 18.9 23.8 61.8 48.1 162.8
07/05 18:20 21.6 26 4.93 1.3 15 17 1013.1 0 11.6 18.7 23.8 61.7 48.3 163.7
07/05 18:10 21.7 26 4.96 1.4 22 26 1013.1 0 11.6 18.7 23.8 61.9 48.6 164.6
07/05 18:00 21.8 26 4.99 1.5 20 28 1018.8 0 11.7 18.9 24.1 62.5 49.1 166.4
07/05 17:50 22 25 4.85 1.1 20 26 1013.1 0 11.4 18.5 23.4 60.7 47.3 160.1
07/05 17:40 22.1 25 4.88 1.2 17 19 1013.1 0 11.4 18.6 23.5 60.9 47.5 160.9
07/05 17:30 22.4 25 4.96 1.4 24 33 1018.4 0 11.6 18.8 23.8 61.7 48.4 164.0
07/05 17:20 22.7 24 4.85 1.1 24 28 1013.1 0 11.4 18.4 23.2 60.2 46.9 158.7
07/05 17:10 23.1 24 4.96 1.4 22 28 1013.1 0 11.6 18.5 23.4 60.8 47.8 161.9
07/05 17:00 23.1 23 4.75 0.9 28 35 1018.2 0 11.1 18.4 23.0 59.5 45.9 155.1
07/05 16:50 23.4 23 4.84 1.1 26 35 1013.1 0 11.3 18.3 23.0 59.6 46.4 157.1

Last Refresh: 08-May-2026 11:03:26

Bureau of Meteorology